Time;durP1;ratioP1;P1;durP2;ratioP2;P2;SDS_P1;SDS_P2;PMS_P1;PMS_P2;Temp;Humidity;BMP_temperature;BMP_pressure;BME280_temperature;BME280_humidity;BME280_pressure;Samples;Min_cycle;Max_cycle;Signal;HPM_P1;HPM_P2
2022/07/13 00:01:04;;;;;;;3.38;1.35;;;;;;;15.67;47.37;96745.66;5114652;28;20047;-61
2022/07/13 00:03:32;;;;;;;3.00;0.90;;;;;;;15.67;47.43;96743.00;5114496;28;20044;-60
2022/07/13 00:05:59;;;;;;;2.85;1.10;;;;;;;15.74;46.64;96744.38;5114468;28;20047;-61
2022/07/13 00:08:27;;;;;;;2.42;1.20;;;;;;;15.82;46.36;96735.19;5114496;28;20079;-61
2022/07/13 00:10:54;;;;;;;2.95;1.13;;;;;;;15.84;45.78;96736.81;5114228;28;20079;-61
2022/07/13 00:13:21;;;;;;;3.22;0.82;;;;;;;15.96;45.89;96735.31;5114240;28;20106;-61
2022/07/13 00:15:48;;;;;;;1.48;0.80;;;;;;;15.99;nan;96740.41;5114269;28;20134;-61
2022/07/13 00:18:15;;;;;;;2.45;0.90;;;;;;;15.97;46.31;96728.22;5114026;28;20075;-60
2022/07/13 00:20:44;;;;;;;7.07;1.30;;;;;;;16.05;45.91;96736.56;5114154;28;20043;-61
2022/07/13 00:23:11;;;;;;;2.35;1.20;;;;;;;16.06;45.71;96737.38;5114252;28;20044;-61
2022/07/13 00:25:39;;;;;;;3.70;1.00;;;;;;;16.07;46.46;96729.38;5114062;28;20044;-61
2022/07/13 00:28:06;;;;;;;3.03;0.88;;;;;;;16.11;45.55;96736.22;5114198;28;20043;-60
2022/07/13 00:30:33;;;;;;;1.45;1.08;;;;;;;16.13;45.80;96738.75;5114029;28;20051;-61
2022/07/13 00:33:00;;;;;;;3.05;0.90;;;;;;;16.16;45.21;96742.06;5114046;28;20051;-61
2022/07/13 00:35:27;;;;;;;2.35;1.02;;;;;;;16.29;44.82;96738.72;5113853;28;20064;-61
2022/07/13 00:37:54;;;;;;;1.92;0.77;;;;;;;16.35;45.49;96741.00;5114139;28;20127;-60
2022/07/13 00:40:21;;;;;;;4.50;1.00;;;;;;;16.36;45.07;96734.78;5113869;28;20130;-61
2022/07/13 00:42:50;;;;;;;3.60;0.82;;;;;;;16.36;44.96;96744.47;5113910;28;20123;-60
2022/07/13 00:45:17;;;;;;;3.92;0.88;;;;;;;16.37;44.63;96736.47;5113693;28;20048;-61
2022/07/13 00:47:48;;;;;;;1.98;0.80;;;;;;;16.47;44.62;96734.16;5113958;28;20562;-61
2022/07/13 00:50:16;;;;;;;2.13;0.80;;;;;;;16.47;44.43;96731.53;5113759;28;20046;-61
2022/07/13 00:52:45;;;;;;;3.85;1.25;;;;;;;16.51;44.21;96732.19;5113673;28;20101;-61
2022/07/13 00:55:12;;;;;;;2.22;0.95;;;;;;;16.55;44.40;96737.19;5113715;28;20048;-61
2022/07/13 00:57:40;;;;;;;2.22;0.80;;;;;;;16.57;44.37;96731.81;5113344;28;20051;-61
2022/07/13 01:00:11;;;;;;;1.70;0.70;;;;;;;16.54;44.74;96732.84;5113637;28;20066;-61
2022/07/13 01:02:39;;;;;;;0.88;0.70;;;;;;;16.45;45.21;96733.38;5113659;28;20048;-61
2022/07/13 01:05:07;;;;;;;4.75;0.80;;;;;;;16.44;44.78;96730.84;5113523;28;20043;-61
2022/07/13 01:07:34;;;;;;;0.98;0.70;;;;;;;16.37;45.23;96736.47;5113559;28;20135;-61
2022/07/13 01:10:05;;;;;;;4.40;1.00;;;;;;;16.30;45.40;96729.84;5113419;28;20044;-61
2022/07/13 01:12:33;;;;;;;2.00;1.20;;;;;;;16.22;45.58;96722.38;5113561;28;20477;-61
2022/07/13 01:15:00;;;;;;;1.85;0.88;;;;;;;16.21;45.69;96731.25;5113580;28;20047;-60
2022/07/13 01:17:31;;;;;;;1.35;0.90;;;;;;;16.15;46.40;96724.53;5113367;28;20578;-61
2022/07/13 01:19:59;;;;;;;1.15;1.05;;;;;;;16.03;46.03;96722.59;5113361;28;20052;-61
2022/07/13 01:22:30;;;;;;;2.15;1.00;;;;;;;16.03;45.94;96727.88;5113314;28;20131;-60
2022/07/13 01:24:59;;;;;;;2.15;0.98;;;;;;;16.10;45.76;96723.94;5113305;28;20043;-60
2022/07/13 01:27:26;;;;;;;1.15;0.90;;;;;;;16.11;46.29;96723.03;5113247;28;20493;-60
2022/07/13 01:29:54;;;;;;;0.75;0.65;;;;;;;16.02;47.13;96724.38;5113354;28;20131;-61
2022/07/13 01:32:21;;;;;;;3.75;0.80;;;;;;;15.90;46.69;96719.78;5113339;28;20109;-61
2022/07/13 01:34:48;;;;;;;3.38;1.00;;;;;;;15.92;46.44;96707.34;5113296;28;20142;-61
2022/07/13 01:37:15;;;;;;;1.13;0.90;;;;;;;15.88;47.10;96713.72;5113201;28;20451;-60
2022/07/13 01:39:42;;;;;;;3.72;0.85;;;;;;;15.87;47.14;96712.88;5113233;28;20047;-61
2022/07/13 01:42:10;;;;;;;2.05;0.93;;;;;;;15.83;46.87;96711.34;5113432;28;20040;-60
2022/07/13 01:44:38;;;;;;;1.23;0.85;;;;;;;15.75;47.09;96709.16;5113209;28;20079;-61
2022/07/13 01:47:09;;;;;;;1.10;0.68;;;;;;;15.74;47.09;96703.97;5112949;28;20582;-60
2022/07/13 01:49:36;;;;;;;1.90;1.05;;;;;;;15.67;47.53;96700.81;5112996;28;20044;-61
2022/07/13 01:52:03;;;;;;;3.00;1.00;;;;;;;15.65;47.48;96705.31;5112995;28;20451;-61
2022/07/13 01:54:30;;;;;;;0.90;0.90;;;;;;;15.68;46.72;96707.78;5113051;28;20079;-61
2022/07/13 01:56:57;;;;;;;5.28;0.80;;;;;;;15.70;47.26;96702.44;5112961;28;20480;-61
2022/07/13 01:59:26;;;;;;;0.63;0.60;;;;;;;15.71;46.84;96704.97;5113195;28;20489;-61
2022/07/13 02:01:54;;;;;;;0.85;0.73;;;;;;;15.73;46.61;96710.19;5113281;28;20048;-61
2022/07/13 02:04:21;;;;;;;1.58;0.98;;;;;;;15.65;46.86;96702.69;5113081;28;20043;-61
2022/07/13 02:06:48;;;;;;;2.55;0.90;;;;;;;15.72;47.17;96696.16;5113009;28;20146;-61
2022/07/13 02:09:15;;;;;;;2.50;0.80;;;;;;;15.72;46.90;96701.44;5115801;28;20044;-60
2022/07/13 02:11:42;;;;;;;2.92;1.00;;;;;;;15.76;47.38;96697.69;5116751;28;20047;-60
2022/07/13 02:14:09;;;;;;;3.25;0.80;;;;;;;15.72;47.18;96696.16;5116639;28;20047;-61
2022/07/13 02:16:37;;;;;;;0.80;0.80;;;;;;;15.71;47.66;96704.16;5116582;28;20047;-61
2022/07/13 02:19:05;;;;;;;1.35;0.80;;;;;;;15.69;47.74;96698.97;5116476;28;20043;-61
2022/07/13 02:21:31;;;;;;;2.60;0.90;;;;;;;15.66;47.94;96701.78;5116533;28;20097;-60
2022/07/13 02:23:59;;;;;;;1.00;0.80;;;;;;;15.62;47.56;96689.72;5116340;28;20130;-60
2022/07/13 02:26:26;;;;;;;0.85;0.82;;;;;;;15.65;47.77;96708.81;5116355;28;20079;-60
2022/07/13 02:28:53;;;;;;;1.55;0.90;;;;;;;15.63;47.16;96697.50;5116364;28;20048;-60
2022/07/13 02:31:21;;;;;;;1.55;0.90;;;;;;;15.70;46.87;96699.78;5116289;28;20047;-60
2022/07/13 02:33:49;;;;;;;6.43;1.00;;;;;;;15.78;46.67;96708.16;5116371;28;20059;-61
2022/07/13 02:36:16;;;;;;;1.55;0.90;;;;;;;15.86;47.05;96699.81;5116303;28;20048;-61
2022/07/13 02:38:43;;;;;;;2.03;0.70;;;;;;;15.87;46.84;96693.59;5116140;28;20086;-61
2022/07/13 02:41:10;;;;;;;1.45;0.95;;;;;;;15.97;45.53;96691.28;5116136;28;20059;-61
2022/07/13 02:43:37;;;;;;;2.70;0.80;;;;;;;16.05;46.25;96697.00;5116151;28;20472;-61
2022/07/13 02:46:05;;;;;;;2.03;0.75;;;;;;;16.08;45.90;96696.81;5115634;28;20551;-61
2022/07/13 02:48:33;;;;;;;3.67;1.42;;;;;;;16.12;45.15;96702.75;5115877;28;20051;-61
2022/07/13 02:51:04;;;;;;;0.85;0.77;;;;;;;16.22;45.27;96693.34;5115991;28;20092;-61
2022/07/13 02:53:31;;;;;;;1.45;0.80;;;;;;;16.32;45.12;96703.38;5115795;28;20415;-60
2022/07/13 02:55:59;;;;;;;1.40;0.98;;;;;;;16.36;45.22;96697.81;5115844;28;20051;-60
2022/07/13 02:58:27;;;;;;;3.80;1.17;;;;;;;16.42;44.88;96691.34;5115641;28;20438;-60
2022/07/13 03:00:54;;;;;;;1.15;0.75;;;;;;;16.49;44.57;96699.72;5115647;28;20051;-61
2022/07/13 03:03:21;;;;;;;2.35;0.90;;;;;;;16.58;44.05;96695.72;5115726;28;20048;-60
2022/07/13 03:05:48;;;;;;;0.82;0.63;;;;;;;16.62;44.13;96699.84;5115842;28;20508;-61
2022/07/13 03:08:16;;;;;;;1.58;0.82;;;;;;;16.64;44.56;96690.03;5115657;28;20102;-61
2022/07/13 03:10:45;;;;;;;1.33;0.70;;;;;;;16.66;44.46;96694.31;5115505;28;20533;-61
2022/07/13 03:13:13;;;;;;;1.30;0.80;;;;;;;16.63;44.73;96690.97;5115547;28;20075;-61
2022/07/13 03:15:40;;;;;;;1.35;0.70;;;;;;;16.65;44.00;96692.59;5115484;28;20462;-60
2022/07/13 03:18:08;;;;;;;1.25;0.70;;;;;;;16.68;44.27;96691.56;5115380;28;20084;-61
2022/07/13 03:20:35;;;;;;;2.78;1.02;;;;;;;16.68;44.27;96700.31;5114492;28;20055;-60
2022/07/13 03:23:02;;;;;;;0.70;0.70;;;;;;;16.71;44.42;96701.09;5115508;28;20044;-61
2022/07/13 03:25:31;;;;;;;1.95;0.75;;;;;;;16.70;44.80;96702.03;5115200;28;20039;-60
2022/07/13 03:27:58;;;;;;;0.98;0.73;;;;;;;16.64;44.81;96698.81;5115295;28;20047;-61
2022/07/13 03:30:26;;;;;;;0.93;0.82;;;;;;;16.64;45.06;96698.81;5115038;28;20123;-61
2022/07/13 03:32:53;;;;;;;2.33;0.88;;;;;;;16.58;44.86;96704.47;5115242;27;20082;-61
2022/07/13 03:35:20;;;;;;;15.07;1.00;;;;;;;16.61;44.60;96706.91;5115033;28;20059;-61
2022/07/13 03:37:47;;;;;;;4.00;1.02;;;;;;;16.63;45.57;96704.19;5114916;28;20550;-60
2022/07/13 03:40:14;;;;;;;1.90;0.90;;;;;;;16.64;44.80;96701.47;5114878;28;20073;-60
2022/07/13 03:42:43;;;;;;;3.38;0.93;;;;;;;16.69;45.47;96703.81;5114999;28;20043;-61
2022/07/13 03:45:10;;;;;;;1.55;0.95;;;;;;;16.77;45.43;96708.66;5114847;28;20052;-61
2022/07/13 03:47:38;;;;;;;1.73;1.02;;;;;;;17.02;44.84;96705.34;5114904;28;20048;-61
2022/07/13 03:50:06;;;;;;;0.60;0.60;;;;;;;17.34;44.72;96706.94;5114774;28;20043;-61
2022/07/13 03:52:33;;;;;;;1.48;1.00;;;;;;;17.55;44.85;96710.03;5114731;28;20093;-61
2022/07/13 03:55:00;;;;;;;1.60;0.98;;;;;;;17.92;42.92;96706.81;5114699;28;20043;-61
2022/07/13 03:57:28;;;;;;;1.67;0.98;;;;;;;18.42;42.20;96700.06;5114568;28;20040;-61
2022/07/13 03:59:56;;;;;;;5.57;0.80;;;;;;;18.99;40.98;96699.81;5114818;28;20047;-61
2022/07/13 04:02:24;;;;;;;2.42;0.80;;;;;;;19.52;40.08;96693.47;5114841;28;20043;-61
2022/07/13 04:04:51;;;;;;;2.90;0.98;;;;;;;20.01;39.77;96702.34;5114474;28;20081;-61
2022/07/13 04:07:18;;;;;;;5.30;1.05;;;;;;;20.45;38.37;96704.44;5114459;28;20047;-61
2022/07/13 04:09:45;;;;;;;2.28;1.13;;;;;;;20.70;37.40;96706.06;5114360;28;20059;-61
2022/07/13 04:12:13;;;;;;;1.35;1.15;;;;;;;20.94;37.52;96707.81;5114669;28;20044;-61
2022/07/13 04:14:40;;;;;;;2.35;0.82;;;;;;;21.16;36.32;96714.09;5114383;28;20499;-61
2022/07/13 04:17:08;;;;;;;0.77;0.65;;;;;;;21.44;37.20;96708.41;5114410;28;20051;-61
2022/07/13 04:19:35;;;;;;;0.93;0.70;;;;;;;21.76;36.56;96710.31;5114099;28;20043;-61
2022/07/13 04:22:02;;;;;;;4.50;1.10;;;;;;;22.06;35.99;96707.94;5114247;28;20051;-61
2022/07/13 04:24:30;;;;;;;2.00;1.02;;;;;;;22.36;34.50;96717.00;5114142;28;20040;-61
2022/07/13 04:26:57;;;;;;;4.82;1.17;;;;;;;22.69;34.06;96706.31;5114303;28;20039;-61
2022/07/13 04:29:24;;;;;;;5.68;0.95;;;;;;;22.87;33.00;96711.91;5114358;28;20130;-61
2022/07/13 04:31:51;;;;;;;1.90;0.80;;;;;;;22.89;32.63;96720.63;5113192;28;20047;-62
2022/07/13 04:34:20;;;;;;;1.60;1.00;;;;;;;23.09;32.98;96710.91;5114279;28;20052;-61
2022/07/13 04:36:47;;;;;;;1.92;0.90;;;;;;;23.39;32.62;96711.03;5114012;28;20052;-62
2022/07/13 04:39:14;;;;;;;2.63;0.90;;;;;;;23.67;32.10;96716.63;5113876;28;20047;-61
2022/07/13 04:41:41;;;;;;;2.85;1.00;;;;;;;23.62;32.22;96721.53;5113759;28;20051;-61
2022/07/13 04:44:09;;;;;;;3.53;1.05;;;;;;;23.79;32.22;96721.84;5113925;28;20090;-61
2022/07/13 04:46:36;;;;;;;1.60;1.00;;;;;;;24.14;32.26;96719.69;5113403;28;20051;-62
2022/07/13 04:49:03;;;;;;;2.10;0.90;;;;;;;24.48;31.14;96730.78;5114000;28;20454;-62
2022/07/13 04:51:32;;;;;;;1.67;1.13;;;;;;;24.81;30.97;96727.81;5113900;28;20044;-62
2022/07/13 04:54:00;;;;;;;1.35;1.10;;;;;;;24.87;31.51;96721.06;5114007;28;20065;-62
2022/07/13 04:56:27;;;;;;;1.30;0.75;;;;;;;25.04;30.62;96726.66;5113807;28;20051;-62
2022/07/13 04:58:54;;;;;;;2.30;0.88;;;;;;;25.27;29.84;96731.63;5113681;28;20044;-62
2022/07/13 05:01:22;;;;;;;1.95;0.65;;;;;;;25.34;30.46;96722.03;5113584;27;20462;-62
2022/07/13 05:03:49;;;;;;;1.08;0.70;;;;;;;25.35;30.07;96726.41;5113617;28;20100;-62
2022/07/13 05:06:17;;;;;;;2.80;0.88;;;;;;;25.39;30.48;96721.59;5113680;28;20043;-62
2022/07/13 05:08:46;;;;;;;1.83;0.88;;;;;;;25.51;29.65;96716.88;5113820;28;20511;-62
2022/07/13 05:11:14;;;;;;;1.02;0.68;;;;;;;25.51;30.46;96727.59;5113561;28;20471;-61
2022/07/13 05:13:41;;;;;;;2.80;1.00;;;;;;;25.36;29.89;96723.59;5113463;28;20048;-62
2022/07/13 05:16:08;;;;;;;6.55;1.10;;;;;;;25.44;30.03;96725.53;5113519;28;20070;-62
2022/07/13 05:18:35;;;;;;;3.10;0.95;;;;;;;25.60;29.55;96727.59;5113496;28;20477;-62
2022/07/13 05:21:03;;;;;;;1.30;0.98;;;;;;;25.91;29.02;96722.91;5113379;28;20078;-62
2022/07/13 05:23:31;;;;;;;2.40;1.25;;;;;;;26.07;29.10;96722.22;5113456;28;20078;-61
2022/07/13 05:26:01;;;;;;;5.35;1.33;;;;;;;26.37;30.10;96723.69;5113300;28;20039;-61
2022/07/13 05:28:28;;;;;;;2.30;0.80;;;;;;;26.63;29.11;96727.44;5113344;28;20055;-62
2022/07/13 05:30:55;;;;;;;4.57;1.10;;;;;;;26.44;28.48;96725.78;5113475;28;20112;-62
2022/07/13 05:33:22;;;;;;;6.43;1.30;;;;;;;26.04;29.45;96730.56;5113443;28;20097;-61
2022/07/13 05:35:50;;;;;;;3.05;0.77;;;;;;;26.10;29.26;96716.56;5113287;28;20043;-61
2022/07/13 05:38:17;;;;;;;4.53;1.00;;;;;;;26.25;29.86;96720.38;5113448;28;20075;-62
2022/07/13 05:40:44;;;;;;;3.80;1.10;;;;;;;26.33;30.05;96727.69;5113210;28;20056;-62
2022/07/13 05:43:13;;;;;;;2.35;1.08;;;;;;;26.43;29.21;96732.97;5114788;28;20463;-62
2022/07/13 05:45:41;;;;;;;2.65;1.02;;;;;;;26.45;28.15;96725.63;5117435;28;20087;-61
2022/07/13 05:48:08;;;;;;;1.48;0.80;;;;;;;26.39;29.08;96733.44;5117087;28;20558;-62
2022/07/13 05:50:35;;;;;;;2.83;1.00;;;;;;;26.56;29.43;96737.09;5117484;28;20508;-62
2022/07/13 05:53:02;;;;;;;0.82;0.70;;;;;;;26.90;28.46;96732.84;5117448;28;20044;-62
2022/07/13 05:55:29;;;;;;;1.08;0.80;;;;;;;26.87;28.99;96740.19;5117226;28;20101;-62
2022/07/13 05:57:57;;;;;;;1.85;0.98;;;;;;;26.62;28.15;96736.47;5117074;28;20048;-62
2022/07/13 06:00:26;;;;;;;5.07;1.02;;;;;;;26.78;28.82;96732.25;5116937;28;20062;-62
2022/07/13 06:02:53;;;;;;;3.28;1.00;;;;;;;27.04;28.08;96737.66;5116977;28;20058;-62
2022/07/13 06:05:21;;;;;;;5.68;0.95;;;;;;;27.00;28.05;96728.25;5117241;27;20043;-61
2022/07/13 06:07:50;;;;;;;5.00;0.93;;;;;;;27.08;28.09;96733.66;5116835;28;20132;-61
2022/07/13 06:10:17;;;;;;;1.00;0.73;;;;;;;27.27;28.54;96734.41;5116945;28;20051;-62
2022/07/13 06:12:44;;;;;;;1.75;0.80;;;;;;;27.44;27.99;96721.06;5116730;28;20527;-61
2022/07/13 06:15:11;;;;;;;2.38;0.80;;;;;;;27.61;27.73;96730.06;5116775;28;20079;-61
2022/07/13 06:17:40;;;;;;;1.25;0.70;;;;;;;27.57;27.09;96729.53;5116760;28;20048;-61
2022/07/13 06:20:09;;;;;;;1.40;1.00;;;;;;;27.57;26.70;96718.78;5116765;28;20112;-61
2022/07/13 06:22:37;;;;;;;2.57;1.03;;;;;;;27.25;26.22;96720.31;5116793;28;20494;-62
2022/07/13 06:25:05;;;;;;;2.50;0.70;;;;;;;27.19;26.77;96727.19;5116494;28;20043;-61
2022/07/13 06:27:32;;;;;;;3.60;0.80;;;;;;;27.05;27.96;96725.91;5116576;28;20050;-62
2022/07/13 06:30:00;;;;;;;1.45;0.90;;;;;;;27.17;28.17;96725.63;5116460;28;20051;-61
2022/07/13 06:32:28;;;;;;;4.70;0.90;;;;;;;27.09;27.37;96724.59;5116406;28;20048;-62
2022/07/13 06:34:57;;;;;;;8.15;1.00;;;;;;;26.99;28.32;96718.50;5116553;28;20486;-62
2022/07/13 06:37:25;;;;;;;2.97;0.70;;;;;;;26.94;26.91;96721.63;5116408;28;20047;-62
2022/07/13 06:39:53;;;;;;;1.70;0.80;;;;;;;26.75;28.19;96725.34;5116292;28;20051;-61
2022/07/13 06:42:21;;;;;;;1.17;0.80;;;;;;;26.84;27.40;96713.69;5116143;28;20048;-61
2022/07/13 06:44:48;;;;;;;2.35;0.95;;;;;;;26.97;27.99;96720.47;5116162;28;20511;-61
2022/07/13 06:47:15;;;;;;;0.98;0.75;;;;;;;27.25;27.44;96723.00;5115920;28;20052;-61
2022/07/13 06:49:43;;;;;;;1.17;0.60;;;;;;;27.48;26.26;96725.16;5116153;28;20080;-61
2022/07/13 06:52:12;;;;;;;2.35;0.73;;;;;;;27.77;26.61;96726.59;5116122;28;20485;-61
2022/07/13 06:54:40;;;;;;;3.20;0.90;;;;;;;27.77;26.21;96715.88;5114966;28;20048;-61
2022/07/13 06:57:07;;;;;;;3.50;0.90;;;;;;;27.72;26.42;96726.28;5115929;28;20051;-61
2022/07/13 06:59:35;;;;;;;5.05;1.00;;;;;;;28.10;26.98;96724.00;5115943;28;20136;-62
2022/07/13 07:02:05;;;;;;;7.30;1.02;;;;;;;28.43;25.47;96731.31;5115773;28;20138;-62
2022/07/13 07:04:32;;;;;;;2.43;0.70;;;;;;;28.70;24.69;96731.97;5115968;28;20100;-62
2022/07/13 07:07:00;;;;;;;1.75;0.70;;;;;;;28.61;25.08;96731.16;5115685;28;20079;-62
2022/07/13 07:09:29;;;;;;;2.90;0.80;;;;;;;28.37;25.60;96723.91;5115716;28;20043;-61
2022/07/13 07:11:58;;;;;;;1.58;0.80;;;;;;;28.59;26.37;96726.94;5115485;28;20040;-62
2022/07/13 07:14:26;;;;;;;1.88;0.90;;;;;;;28.99;24.77;96733.31;5115857;28;20044;-62
2022/07/13 07:16:54;;;;;;;2.22;0.82;;;;;;;29.32;23.96;96721.66;5115494;28;20052;-62
2022/07/13 07:19:21;;;;;;;7.65;1.00;;;;;;;29.26;24.50;96722.34;5115435;28;20473;-61
2022/07/13 07:21:49;;;;;;;1.13;0.60;;;;;;;29.36;23.38;96727.50;5115296;28;20059;-62
2022/07/13 07:24:16;;;;;;;1.38;0.80;;;;;;;29.47;24.98;96726.31;5115400;28;20047;-62
2022/07/13 07:26:46;;;;;;;4.05;0.90;;;;;;;29.72;23.61;96723.53;5115523;28;20050;-62
2022/07/13 07:29:13;;;;;;;3.42;0.70;;;;;;;29.75;23.30;96728.56;5115450;28;20063;-62
2022/07/13 07:31:41;;;;;;;5.03;0.75;;;;;;;29.85;23.55;96722.94;5115228;28;20044;-61
2022/07/13 07:34:09;;;;;;;3.58;0.85;;;;;;;29.80;23.14;96738.81;5115148;28;20051;-62
2022/07/13 07:36:38;;;;;;;5.07;0.90;;;;;;;29.42;22.23;96742.97;5115166;28;20047;-62
2022/07/13 07:39:06;;;;;;;9.15;0.88;;;;;;;29.43;24.69;96746.53;5115231;28;20123;-62
2022/07/13 07:41:33;;;;;;;2.83;0.80;;;;;;;29.53;22.82;96736.38;5115026;28;20074;-62
2022/07/13 07:44:02;;;;;;;1.40;0.47;;;;;;;29.81;22.63;96730.56;5115314;28;20048;-62
2022/07/13 07:46:30;;;;;;;0.95;0.60;;;;;;;29.38;21.79;96737.09;5114781;28;20470;-62
2022/07/13 07:48:58;;;;;;;0.75;0.60;;;;;;;29.24;23.70;96741.34;5114904;28;20488;-62
2022/07/13 07:51:27;;;;;;;1.90;0.70;;;;;;;29.26;22.70;96735.78;5114964;28;20052;-62
2022/07/13 07:53:55;;;;;;;1.65;0.75;;;;;;;28.91;23.57;96736.00;5114719;28;20044;-62
2022/07/13 07:56:23;;;;;;;2.75;0.80;;;;;;;28.94;23.60;96732.16;5114737;27;20115;-62
2022/07/13 07:58:50;;;;;;;1.42;0.85;;;;;;;28.49;23.62;96733.31;5114684;28;20039;-62
2022/07/13 08:01:20;;;;;;;6.65;1.13;;;;;;;28.38;25.33;96734.50;5114500;28;20048;-62
2022/07/13 08:03:47;;;;;;;2.87;0.83;;;;;;;28.41;24.85;96744.06;5114675;28;20555;-62
2022/07/13 08:06:16;;;;;;;5.95;1.00;;;;;;;28.71;23.56;96736.34;5114369;28;20071;-62
2022/07/13 08:08:43;;;;;;;2.58;0.60;;;;;;;28.61;23.81;96741.06;5114490;28;20105;-62
2022/07/13 08:11:16;;;;;;;2.28;0.50;;;;;;;28.64;23.27;96735.34;5114526;28;20048;-62
2022/07/13 08:13:43;;;;;;;3.53;0.70;;;;;;;28.81;23.95;96725.41;5114328;28;20061;-62
2022/07/13 08:16:11;;;;;;;1.02;0.60;;;;;;;28.50;24.10;96740.38;5114428;28;20039;-62
2022/07/13 08:18:39;;;;;;;1.35;0.80;;;;;;;28.50;23.84;96739.53;5114372;28;20051;-63
2022/07/13 08:21:07;;;;;;;2.10;0.70;;;;;;;28.53;24.62;96736.50;5114219;28;20100;-63
2022/07/13 08:23:52;;;;;;;1.83;0.50;;;;;;;28.81;23.94;96751.47;5114214;28;20043;-63
2022/07/13 08:26:20;;;;;;;2.05;0.55;;;;;;;29.16;23.96;96744.03;5114265;28;20134;-63
2022/07/13 08:28:48;;;;;;;4.57;0.80;;;;;;;29.08;23.41;96738.69;5114144;28;20048;-63
2022/07/13 08:31:16;;;;;;;1.23;0.82;;;;;;;29.37;23.10;96735.41;5114179;28;20143;-63
2022/07/13 08:39:14;;;;;;;1.33;0.60;;;;;;;29.77;21.91;96740.03;5114167;28;20054;-63
2022/07/13 08:41:41;;;;;;;3.13;0.65;;;;;;;29.80;22.25;96755.00;5113830;28;20096;-63
2022/07/13 08:44:09;;;;;;;5.65;0.50;;;;;;;29.78;22.79;96744.38;5113942;28;20488;-63
2022/07/13 08:46:36;;;;;;;3.20;0.90;;;;;;;29.98;22.73;96743.94;5113954;28;20497;-63
2022/07/13 08:49:07;;;;;;;1.15;0.60;;;;;;;29.59;21.80;96738.38;5113859;28;20043;-63
2022/07/13 08:51:35;;;;;;;0.93;0.50;;;;;;;29.54;22.13;96747.97;5112573;28;20491;-63
2022/07/13 08:54:05;;;;;;;1.85;0.60;;;;;;;29.20;22.18;96745.38;5113813;28;20048;-63
2022/07/13 08:56:34;;;;;;;2.00;0.77;;;;;;;28.98;23.32;96750.47;5113846;28;20554;-63
2022/07/13 08:59:02;;;;;;;1.10;0.50;;;;;;;29.16;23.32;96751.31;5113858;28;20280;-63
2022/07/13 09:01:30;;;;;;;0.70;0.50;;;;;;;29.61;22.75;96741.75;5113881;28;20051;-63
2022/07/13 09:04:00;;;;;;;3.33;0.80;;;;;;;29.76;23.04;96743.72;5113612;28;20070;-63
2022/07/13 09:06:47;;;;;;;2.65;0.55;;;;;;;29.47;23.00;96751.38;5113639;28;20067;-63
2022/07/13 09:09:30;;;;;;;1.63;0.52;;;;;;;29.20;23.20;96753.44;5113817;28;20043;-63
2022/07/13 09:12:13;;;;;;;0.82;0.60;;;;;;;29.32;22.72;96759.34;5113530;28;20052;-63
2022/07/13 09:14:40;;;;;;;1.13;0.73;;;;;;;29.21;22.41;96749.78;5113608;28;20090;-63
2022/07/13 09:17:08;;;;;;;2.03;0.60;;;;;;;29.38;24.11;96757.81;5113637;28;20485;-63
2022/07/13 09:19:36;;;;;;;3.60;0.82;;;;;;;29.61;21.77;96755.22;5117472;28;20049;-63
2022/07/13 09:22:12;;;;;;;1.30;0.55;;;;;;;29.77;21.21;96750.78;5117627;28;20053;-63
2022/07/13 09:24:46;;;;;;;1.15;0.50;;;;;;;29.51;21.50;96751.88;5117631;28;20394;-63
2022/07/13 09:27:15;;;;;;;2.03;0.52;;;;;;;29.34;21.31;96751.91;5117637;28;20048;-64
2022/07/13 09:29:43;;;;;;;1.05;0.57;;;;;;;29.39;22.08;96746.88;5117459;28;20040;-63
2022/07/13 09:32:12;;;;;;;4.43;0.70;;;;;;;29.47;22.33;96754.06;5117605;28;20524;-63
2022/07/13 09:34:53;;;;;;;2.97;0.60;;;;;;;29.75;22.22;96739.34;5117631;28;20131;-63
2022/07/13 09:37:24;;;;;;;0.50;0.50;;;;;;;29.80;20.32;96750.44;5117475;28;20503;-63
2022/07/13 09:40:00;;;;;;;2.65;0.75;;;;;;;29.36;21.06;96744.53;5117399;28;20055;-63
2022/07/13 09:42:28;;;;;;;4.53;0.52;;;;;;;29.51;21.91;96743.78;5117275;28;20051;-63
2022/07/13 09:47:48;;;;;;;0.60;0.47;;;;;;;29.67;23.04;96748.28;5117326;28;20054;-63
2022/07/13 09:50:17;;;;;;;1.95;0.57;;;;;;;29.36;22.71;96743.66;5117119;28;20135;-63
2022/07/13 09:52:47;;;;;;;2.40;0.60;;;;;;;28.99;22.96;96730.63;5117154;28;20123;-63
2022/07/13 09:55:20;;;;;;;1.33;0.70;;;;;;;28.95;22.41;96721.22;5117161;28;20044;-63
2022/07/13 09:57:50;;;;;;;1.40;0.43;;;;;;;29.02;23.85;96745.59;5117106;28;20155;-63
2022/07/13 10:00:21;;;;;;;0.80;0.60;;;;;;;29.35;21.94;96742.00;5117068;28;20050;-63
2022/07/13 10:02:50;;;;;;;1.88;0.65;;;;;;;29.32;21.25;96731.56;5116752;28;20089;-63
2022/07/13 10:05:18;;;;;;;3.55;0.50;;;;;;;29.15;21.75;96726.22;5116794;28;20134;-63
2022/07/13 10:07:49;;;;;;;4.32;0.90;;;;;;;28.99;22.52;96725.22;5116945;28;20039;-63
2022/07/13 10:10:18;;;;;;;2.58;0.85;;;;;;;29.14;22.25;96732.63;5116868;28;20043;-63
2022/07/13 10:12:46;;;;;;;3.08;0.60;;;;;;;29.22;21.62;96740.66;5116698;27;20044;-63
2022/07/13 10:15:14;;;;;;;1.55;0.65;;;;;;;28.88;22.28;96729.09;5116443;28;20047;-63
2022/07/13 10:17:47;;;;;;;2.15;0.75;;;;;;;28.85;22.14;96724.06;5116600;28;20051;-63
2022/07/13 10:20:17;;;;;;;0.93;0.50;;;;;;;28.80;22.05;96728.28;5116594;28;20047;-62
2022/07/13 10:22:48;;;;;;;4.00;1.10;;;;;;;28.41;22.57;96719.88;5116430;28;20050;-62
2022/07/13 10:25:18;;;;;;;3.33;0.70;;;;;;;27.98;22.74;96728.84;5116616;28;20075;-62
2022/07/13 10:27:46;;;;;;;1.90;0.80;;;;;;;27.67;22.97;96717.84;5116418;28;20087;-62
2022/07/13 10:30:24;;;;;;;2.28;0.77;;;;;;;27.41;22.18;96713.34;5116681;28;20079;-63
2022/07/13 10:32:52;;;;;;;0.70;0.40;;;;;;;27.72;21.94;96702.91;5116441;28;20040;-63
2022/07/13 10:35:20;;;;;;;1.13;0.60;;;;;;;28.05;22.60;96698.63;5116536;28;20043;-63
2022/07/13 10:38:17;;;;;;;4.63;0.60;;;;;;;28.35;21.96;96705.25;5116346;28;20118;-63
2022/07/13 10:40:45;;;;;;;1.00;0.60;;;;;;;28.08;22.08;96693.75;5116500;28;20054;-62
2022/07/13 10:43:14;;;;;;;2.35;0.80;;;;;;;28.17;22.57;96697.28;5115965;28;20577;-63
2022/07/13 10:45:44;;;;;;;1.00;0.47;;;;;;;28.55;23.05;96704.06;5116247;28;20043;-63
2022/07/13 10:48:43;;;;;;;2.47;0.88;;;;;;;28.95;21.59;96688.91;5116070;28;20564;-63
2022/07/13 10:51:22;;;;;;;3.15;0.50;;;;;;;29.28;21.12;96692.53;5115955;28;20485;-62
2022/07/13 10:54:11;;;;;;;3.28;0.40;;;;;;;29.41;20.99;96682.06;5116040;28;20051;-62
2022/07/13 10:56:58;;;;;;;3.78;0.70;;;;;;;29.64;21.41;96675.91;5107277;27;20054;-63
2022/07/13 10:59:48;;;;;;;1.20;0.57;;;;;;;29.03;20.66;96674.59;5115730;28;20058;-63
2022/07/13 11:02:43;;;;;;;0.82;0.73;;;;;;;28.24;22.04;96674.09;5115731;28;20081;-63
2022/07/13 11:05:11;;;;;;;1.75;0.55;;;;;;;28.15;22.73;96671.59;5115711;28;20051;-63
2022/07/13 11:07:42;;;;;;;2.70;0.80;;;;;;;28.43;22.94;96658.69;5115807;28;20370;-63
2022/07/13 11:10:20;;;;;;;1.10;0.50;;;;;;;28.71;21.56;96652.13;5115569;28;20048;-63
2022/07/13 11:13:01;;;;;;;2.85;0.70;;;;;;;28.77;22.51;96648.72;5115708;28;20126;-63
2022/07/13 11:15:46;;;;;;;3.67;0.75;;;;;;;28.95;23.56;96661.19;5115591;28;20485;-63
2022/07/13 11:18:29;;;;;;;1.45;0.80;;;;;;;29.13;21.97;96666.31;5115657;28;20085;-63
2022/07/13 11:20:57;;;;;;;2.08;0.60;;;;;;;28.79;21.23;96667.38;5115371;28;20052;-63
2022/07/13 11:26:19;;;;;;;2.70;0.63;;;;;;;27.93;22.53;96647.06;5115607;28;20104;-63
2022/07/13 11:28:53;;;;;;;2.72;0.60;;;;;;;28.00;22.63;96656.94;5115252;28;20095;-63
2022/07/13 11:31:21;;;;;;;3.20;0.63;;;;;;;28.32;23.49;96662.56;5115340;28;20044;-63
2022/07/13 11:33:53;;;;;;;3.03;0.70;;;;;;;28.59;21.88;96657.81;5115250;28;20482;-63
2022/07/13 11:36:23;;;;;;;1.00;0.70;;;;;;;28.74;21.36;96659.81;5115063;28;20060;-63
2022/07/13 11:38:50;;;;;;;1.33;0.80;;;;;;;28.83;21.98;96655.28;5115042;27;20058;-63
2022/07/13 11:41:23;;;;;;;1.45;0.77;;;;;;;28.91;22.38;96654.41;5114536;28;20043;-63
2022/07/13 11:43:51;;;;;;;3.80;0.50;;;;;;;29.13;21.18;96653.69;5115201;28;20051;-63
2022/07/13 11:46:25;;;;;;;2.90;0.80;;;;;;;29.26;21.99;96657.72;5114676;28;20481;-63
2022/07/13 11:49:02;;;;;;;2.60;0.90;;;;;;;29.38;21.29;96666.25;5114798;28;20043;-63
2022/07/13 11:51:30;;;;;;;2.13;0.40;;;;;;;29.28;21.37;96657.53;5114813;28;20086;-63
2022/07/13 11:54:06;;;;;;;4.00;0.50;;;;;;;29.19;20.42;96656.72;5114834;28;20116;-63